Bolton Landing, New York
Current Conditions -  °F | °C
As of 9:53 AM on Saturday 20 Dec 2014 (Local Time) from KGFL Reporting Station
Overcast Overcast  
Wind Chill: 16°   Ceiling: 1500
Heat Index: 22°   Visibility: 10mi
Dew Point: 16°   Wind: 5mph
Humidity: 78%   Direction: 90°E
Pressure: 30.33"   Gusts: NA
Location:  43.56°N, 73.66°W
Report Text: KGFL 201453Z AUTO 09004KT 10SM OVC015 M06/M09 A3033 RMK AO2 SLP281 T10561089 51009
Loading
Personal Weather Stations






























Interactive Weather Map New forecast layout! Learn more

10-Day Weather Forecast

Advertisements
Track Severe Weather on mobile